createdAt,value
2022-11-20T00:00:57.389Z,18.90
2022-11-20T00:03:25.246Z,19.00
2022-11-20T00:05:53.015Z,19.00
2022-11-20T00:08:21.323Z,19.10
2022-11-20T00:10:49.088Z,19.10
2022-11-20T00:13:16.867Z,19.10
2022-11-20T00:15:45.999Z,19.10
2022-11-20T00:18:13.790Z,19.10
2022-11-20T00:20:41.532Z,19.10
2022-11-20T00:23:09.339Z,19.10
2022-11-20T00:25:37.303Z,19.10
2022-11-20T00:28:05.422Z,19.10
2022-11-20T00:30:33.198Z,19.10
2022-11-20T00:33:02.360Z,19.10
2022-11-20T00:35:30.214Z,19.10
2022-11-20T00:37:58.007Z,19.20
2022-11-20T00:40:25.759Z,19.20
2022-11-20T00:42:53.564Z,19.20
2022-11-20T00:45:21.356Z,19.20
2022-11-20T00:47:49.480Z,19.20
2022-11-20T00:50:18.625Z,19.20
2022-11-20T00:52:46.439Z,19.10
2022-11-20T00:55:14.338Z,19.10
2022-11-20T00:57:42.108Z,19.10
2022-11-20T01:00:10.835Z,19.10
2022-11-20T01:02:38.610Z,19.20
2022-11-20T01:05:06.523Z,19.10
2022-11-20T01:07:35.673Z,19.10
2022-11-20T01:10:03.772Z,19.10
2022-11-20T01:12:31.530Z,19.10
2022-11-20T01:14:59.297Z,19.10
2022-11-20T01:17:27.113Z,19.20
2022-11-20T01:19:54.901Z,19.10
2022-11-20T01:22:22.748Z,19.20
2022-11-20T01:24:52.897Z,19.10
2022-11-20T01:27:20.661Z,19.20
2022-11-20T01:29:48.438Z,19.10
2022-11-20T01:32:16.218Z,19.10
2022-11-20T01:34:44.010Z,19.10
2022-11-20T01:37:11.749Z,19.10
2022-11-20T01:39:39.519Z,19.10
2022-11-20T01:42:27.331Z,19.10
2022-11-20T01:44:56.993Z,19.10
2022-11-20T01:47:31.610Z,19.00
2022-11-20T01:50:04.797Z,19.10
2022-11-20T01:52:36.685Z,19.10
2022-11-20T01:55:09.201Z,19.10
2022-11-20T01:57:39.982Z,19.10
2022-11-20T02:00:10.355Z,19.10
2022-11-20T02:02:44.486Z,19.10
2022-11-20T02:05:20.083Z,19.10
2022-11-20T02:07:49.054Z,19.10
2022-11-20T02:10:17.337Z,19.00
2022-11-20T02:13:04.206Z,19.00
2022-11-20T02:15:32.140Z,19.00
2022-11-20T02:18:00.028Z,19.00
2022-11-20T02:20:28.034Z,19.00
2022-11-20T02:23:01.466Z,19.00
2022-11-20T02:25:33.225Z,19.00
2022-11-20T02:28:01.030Z,19.00
2022-11-20T02:30:28.867Z,19.00
2022-11-20T02:32:56.629Z,19.00
2022-11-20T02:35:45.383Z,19.00
2022-11-20T02:38:13.379Z,19.00
2022-11-20T02:40:42.781Z,19.00
2022-11-20T02:43:10.846Z,19.10
2022-11-20T02:45:39.110Z,19.10
2022-11-20T02:48:09.109Z,19.00
2022-11-20T02:50:39.679Z,19.10
2022-11-20T02:53:07.886Z,19.00
2022-11-20T02:55:35.889Z,19.00
2022-11-20T02:58:05.021Z,19.00
2022-11-20T03:00:32.874Z,19.00
2022-11-20T03:03:00.650Z,19.00
2022-11-20T03:05:28.467Z,19.00
2022-11-20T03:07:56.285Z,19.00
2022-11-20T03:10:24.052Z,19.00
2022-11-20T03:12:56.242Z,19.00
2022-11-20T03:15:25.433Z,19.00
2022-11-20T03:17:55.588Z,19.00
2022-11-20T03:20:23.446Z,19.00
2022-11-20T03:22:51.257Z,19.00
2022-11-20T03:25:19.040Z,19.00
2022-11-20T03:27:46.842Z,19.00
2022-11-20T03:30:15.477Z,19.00
2022-11-20T03:32:44.749Z,18.90
2022-11-20T03:35:12.543Z,19.00
2022-11-20T03:37:40.339Z,18.90
2022-11-20T03:40:10.828Z,18.90
2022-11-20T03:42:47.354Z,18.90
2022-11-20T03:45:15.754Z,19.00
2022-11-20T03:47:45.299Z,18.90
2022-11-20T03:50:14.839Z,18.90
2022-11-20T03:52:43.076Z,18.90
2022-11-20T03:55:11.062Z,18.90
2022-11-20T03:57:38.880Z,18.90
2022-11-20T04:00:07.918Z,19.00
2022-11-20T04:02:35.703Z,18.90
2022-11-20T04:05:05.097Z,19.00
2022-11-20T04:07:32.981Z,18.90
2022-11-20T04:10:00.822Z,18.90
2022-11-20T04:12:28.595Z,18.90
2022-11-20T04:14:56.333Z,18.90
2022-11-20T04:17:24.143Z,18.90
2022-11-20T04:19:51.922Z,18.90
2022-11-20T04:22:21.028Z,18.90
2022-11-20T04:24:48.782Z,18.90
2022-11-20T04:27:16.620Z,18.90
2022-11-20T04:29:44.670Z,18.90
2022-11-20T04:32:12.428Z,18.90
2022-11-20T04:34:40.194Z,18.70
2022-11-20T04:37:07.993Z,18.70
2022-11-20T04:39:37.131Z,18.80
2022-11-20T04:42:22.696Z,18.70
2022-11-20T04:44:51.158Z,18.80
2022-11-20T04:47:18.946Z,18.80
2022-11-20T04:49:46.814Z,18.80
2022-11-20T04:52:15.042Z,18.80
2022-11-20T04:54:44.183Z,18.90
2022-11-20T04:57:14.623Z,18.80
2022-11-20T04:59:43.081Z,18.80
2022-11-20T05:02:11.805Z,18.80
2022-11-20T05:04:39.551Z,18.80
2022-11-20T05:07:07.428Z,18.80
2022-11-20T05:09:35.201Z,18.80
2022-11-20T05:12:04.586Z,18.80
2022-11-20T05:14:32.377Z,18.80
2022-11-20T05:17:00.282Z,18.80
2022-11-20T05:19:28.095Z,18.80
2022-11-20T05:21:55.936Z,18.80
2022-11-20T05:24:23.902Z,18.90
2022-11-20T05:26:51.650Z,18.90
2022-11-20T05:29:21.077Z,18.90
2022-11-20T05:31:49.089Z,18.90
2022-11-20T05:34:16.898Z,19.00
2022-11-20T05:36:44.670Z,18.90
2022-11-20T05:39:12.433Z,18.90
2022-11-20T05:41:40.251Z,18.90
2022-11-20T05:44:08.037Z,18.90
2022-11-20T05:46:37.113Z,18.90
2022-11-20T05:49:04.904Z,18.90
2022-11-20T05:51:32.722Z,18.90
2022-11-20T05:54:00.527Z,18.90
2022-11-20T05:56:28.311Z,18.90
2022-11-20T05:58:56.062Z,18.90
2022-11-20T06:01:25.491Z,18.90
2022-11-20T06:03:55.456Z,18.90
2022-11-20T06:06:23.372Z,18.90
2022-11-20T06:08:51.453Z,18.90
2022-11-20T06:11:19.869Z,18.90
2022-11-20T06:13:48.246Z,18.90
2022-11-20T06:16:17.929Z,18.90
2022-11-20T06:18:45.934Z,18.90
2022-11-20T06:21:16.966Z,18.60
2022-11-20T06:23:46.253Z,18.60
2022-11-20T06:26:16.014Z,18.70
2022-11-20T06:28:44.275Z,18.80
2022-11-20T06:31:14.231Z,19.00
2022-11-20T06:33:42.282Z,19.00
2022-11-20T06:36:11.928Z,19.00
2022-11-20T06:38:41.826Z,19.00
2022-11-20T06:41:14.134Z,18.90
2022-11-20T06:43:41.932Z,18.80
2022-11-20T06:46:11.497Z,18.90
2022-11-20T06:48:39.361Z,18.70
2022-11-20T06:51:08.070Z,18.40
2022-11-20T06:53:36.342Z,18.20
2022-11-20T06:56:06.112Z,18.10
2022-11-20T06:58:35.646Z,18.00
2022-11-20T07:01:05.685Z,17.90
2022-11-20T07:03:33.522Z,18.00
2022-11-20T07:06:02.972Z,18.00
2022-11-20T07:08:30.923Z,18.10
2022-11-20T07:11:00.757Z,18.30
2022-11-20T07:13:30.765Z,18.40
2022-11-20T07:16:02.457Z,18.40
2022-11-20T07:18:30.807Z,18.40
2022-11-20T07:21:01.757Z,18.40
2022-11-20T07:23:29.624Z,18.40
2022-11-20T07:25:57.468Z,18.40
2022-11-20T07:28:25.262Z,18.40
2022-11-20T07:30:55.158Z,18.40
2022-11-20T07:33:23.089Z,18.40
2022-11-20T07:35:50.866Z,18.40
2022-11-20T07:38:18.658Z,18.40
2022-11-20T07:40:46.529Z,18.40
2022-11-20T07:43:14.325Z,18.40
2022-11-20T07:45:43.754Z,18.30
2022-11-20T07:48:12.843Z,18.40
2022-11-20T07:50:40.601Z,18.40
2022-11-20T07:53:08.735Z,18.40
2022-11-20T07:55:37.003Z,18.40
2022-11-20T07:58:04.809Z,18.30
2022-11-20T08:00:32.622Z,18.40
2022-11-20T08:03:00.383Z,18.40
2022-11-20T08:05:29.529Z,18.30
2022-11-20T08:07:57.319Z,18.40
2022-11-20T08:10:25.721Z,18.40
2022-11-20T08:13:12.287Z,18.40
2022-11-20T08:15:41.461Z,18.40
2022-11-20T08:21:04.260Z,18.30
2022-11-20T08:23:33.079Z,18.30
2022-11-20T08:26:00.849Z,18.40
2022-11-20T08:28:28.688Z,18.40
2022-11-20T08:31:00.678Z,18.30
2022-11-20T08:33:28.729Z,18.20
2022-11-20T08:36:02.748Z,18.10
2022-11-20T08:38:31.138Z,18.20
2022-11-20T08:41:13.573Z,18.10
2022-11-20T08:43:41.334Z,17.90
2022-11-20T08:46:09.086Z,17.90
2022-11-20T08:48:36.929Z,17.80
2022-11-20T08:51:06.414Z,17.90
2022-11-20T08:53:34.207Z,17.80
2022-11-20T08:56:02.235Z,17.80
2022-11-20T08:58:31.207Z,17.80
2022-11-20T09:00:59.354Z,17.90
2022-11-20T09:03:32.585Z,18.00
2022-11-20T09:06:01.755Z,18.00
2022-11-20T09:08:31.297Z,18.10
2022-11-20T09:11:00.193Z,18.10
2022-11-20T09:13:29.818Z,18.10
2022-11-20T09:15:58.554Z,18.20
2022-11-20T09:18:26.720Z,18.20
2022-11-20T09:20:58.549Z,18.20
2022-11-20T09:23:26.915Z,18.20
2022-11-20T09:26:00.490Z,18.20
2022-11-20T09:28:28.490Z,18.20
2022-11-20T09:30:56.328Z,18.30
2022-11-20T09:33:24.102Z,18.30
2022-11-20T09:35:51.881Z,18.30
2022-11-20T09:38:19.803Z,18.40
2022-11-20T09:40:53.639Z,18.40
2022-11-20T09:43:34.707Z,18.40
2022-11-20T09:46:09.790Z,18.40
2022-11-20T09:49:08.305Z,18.40
2022-11-20T09:51:45.668Z,18.40
2022-11-20T09:54:19.349Z,18.40
2022-11-20T09:56:49.417Z,18.40
2022-11-20T09:59:31.151Z,18.40
2022-11-20T10:02:01.031Z,18.40
2022-11-20T10:04:36.704Z,18.40
2022-11-20T10:07:31.558Z,18.40
2022-11-20T10:09:58.606Z,18.40
2022-11-20T10:12:33.741Z,18.50
2022-11-20T10:15:14.743Z,18.50
2022-11-20T10:18:04.657Z,18.40
2022-11-20T10:20:43.010Z,18.50
2022-11-20T10:23:29.469Z,18.40
2022-11-20T10:26:03.303Z,18.50
2022-11-20T10:28:52.764Z,18.50
2022-11-20T10:31:31.953Z,18.40
2022-11-20T10:34:11.940Z,18.50
2022-11-20T10:36:45.330Z,18.60
2022-11-20T10:39:21.007Z,18.60
2022-11-20T10:41:53.050Z,18.60
2022-11-20T10:44:37.583Z,18.60
2022-11-20T10:47:12.140Z,18.60
2022-11-20T10:49:41.276Z,18.60
2022-11-20T10:52:17.857Z,18.50
2022-11-20T10:54:54.639Z,18.50
2022-11-20T10:57:35.799Z,18.40
2022-11-20T11:00:07.575Z,18.40
2022-11-20T11:02:43.368Z,18.30
2022-11-20T11:05:22.471Z,18.30
2022-11-20T11:07:52.749Z,18.20
2022-11-20T11:10:23.173Z,18.10
2022-11-20T11:12:51.135Z,18.00
2022-11-20T11:15:28.506Z,18.00
2022-11-20T11:17:58.171Z,18.00
2022-11-20T11:20:28.017Z,18.00
2022-11-20T11:22:57.328Z,18.00
2022-11-20T11:25:28.834Z,17.90
2022-11-20T11:27:59.415Z,17.90
2022-11-20T11:30:29.171Z,18.00
2022-11-20T11:33:11.144Z,17.90
2022-11-20T11:35:49.995Z,17.90
2022-11-20T11:38:32.264Z,17.90
2022-11-20T11:41:00.210Z,17.90
2022-11-20T11:43:49.479Z,18.00
2022-11-20T11:46:29.136Z,17.90
2022-11-20T11:48:59.624Z,18.00
2022-11-20T11:51:33.530Z,18.10
2022-11-20T11:54:02.805Z,18.10
2022-11-20T11:56:32.009Z,18.10
2022-11-20T11:59:06.359Z,18.10
2022-11-20T12:01:41.707Z,18.10
2022-11-20T12:04:19.246Z,18.10
2022-11-20T12:06:52.908Z,18.10
2022-11-20T12:09:26.220Z,18.10
2022-11-20T12:12:00.907Z,18.10
2022-11-20T12:14:34.436Z,18.20
2022-11-20T12:17:03.160Z,18.20
2022-11-20T12:19:35.055Z,18.10
2022-11-20T12:22:14.654Z,18.10
2022-11-20T12:24:53.502Z,18.10
2022-11-20T12:27:58.185Z,18.10
2022-11-20T12:30:26.237Z,18.00
2022-11-20T12:33:09.147Z,18.00
2022-11-20T12:35:54.941Z,17.90
2022-11-20T12:38:59.800Z,18.00
2022-11-20T12:42:00.180Z,18.00
2022-11-20T12:45:03.676Z,17.90
2022-11-20T12:47:40.679Z,17.90
2022-11-20T12:50:19.446Z,17.90
2022-11-20T12:52:53.481Z,17.90
2022-11-20T12:55:34.016Z,17.90
2022-11-20T12:58:10.527Z,17.90
2022-11-20T13:00:45.840Z,17.80
2022-11-20T13:03:49.843Z,17.90
2022-11-20T13:06:19.171Z,17.80
2022-11-20T13:08:54.806Z,17.80
2022-11-20T13:11:29.949Z,17.80
2022-11-20T13:14:14.844Z,17.80
2022-11-20T13:16:49.786Z,17.80
2022-11-20T13:19:19.937Z,17.80
2022-11-20T13:21:50.165Z,17.80
2022-11-20T13:24:28.549Z,17.80
2022-11-20T13:27:04.695Z,17.90
2022-11-20T13:29:33.639Z,17.90
2022-11-20T13:32:08.341Z,17.80
2022-11-20T13:34:37.342Z,17.80
2022-11-20T13:37:05.629Z,17.80
2022-11-20T13:39:36.509Z,17.80
2022-11-20T13:42:22.651Z,17.80
2022-11-20T13:44:55.689Z,17.80
2022-11-20T13:47:26.050Z,17.80
2022-11-20T13:49:55.296Z,17.70
2022-11-20T13:52:39.510Z,17.80
2022-11-20T13:55:20.511Z,17.70
2022-11-20T13:58:07.832Z,17.70
2022-11-20T14:00:35.605Z,17.70
2022-11-20T14:03:13.147Z,17.70
2022-11-20T14:05:49.403Z,17.70
2022-11-20T14:08:27.312Z,17.70
2022-11-20T14:11:06.599Z,17.70
2022-11-20T14:13:34.443Z,17.70
2022-11-20T14:16:02.173Z,17.70
2022-11-20T14:18:30.129Z,17.70
2022-11-20T14:20:57.962Z,17.70
2022-11-20T14:23:30.077Z,17.60
2022-11-20T14:25:58.487Z,17.70
2022-11-20T14:28:29.939Z,17.70
2022-11-20T14:30:59.287Z,17.70
2022-11-20T14:33:28.791Z,17.70
2022-11-20T14:35:58.444Z,17.70
2022-11-20T14:38:28.881Z,17.70
2022-11-20T14:41:07.169Z,17.70
2022-11-20T14:43:36.913Z,17.70
2022-11-20T14:46:06.840Z,17.70
2022-11-20T14:48:39.914Z,17.70
2022-11-20T14:51:07.774Z,17.70
2022-11-20T14:53:35.581Z,17.70
2022-11-20T14:56:04.859Z,17.70
2022-11-20T14:58:35.145Z,17.60
2022-11-20T15:01:05.831Z,17.50
2022-11-20T15:03:34.939Z,17.50
2022-11-20T15:06:03.505Z,17.60
2022-11-20T15:08:31.557Z,17.50
2022-11-20T15:11:00.055Z,17.50
2022-11-20T15:13:31.687Z,17.50
2022-11-20T15:16:00.562Z,17.50
2022-11-20T15:18:33.948Z,17.40
2022-11-20T15:21:04.857Z,17.40
2022-11-20T15:23:32.736Z,17.40
2022-11-20T15:26:00.514Z,17.40
2022-11-20T15:28:32.663Z,17.40
2022-11-20T15:31:00.742Z,17.40
2022-11-20T15:33:29.909Z,17.30
2022-11-20T15:35:58.809Z,17.40
2022-11-20T15:38:26.592Z,17.30
2022-11-20T15:40:54.386Z,17.30
2022-11-20T15:43:22.205Z,17.30
2022-11-20T15:45:52.272Z,17.30
2022-11-20T15:48:22.691Z,17.30
2022-11-20T15:50:57.847Z,17.30
2022-11-20T15:53:25.768Z,17.30
2022-11-20T15:55:53.597Z,17.30
2022-11-20T15:58:21.355Z,17.30
2022-11-20T16:00:49.135Z,17.20
2022-11-20T16:03:18.347Z,17.30
2022-11-20T16:05:46.474Z,17.30
2022-11-20T16:08:15.710Z,17.30
2022-11-20T16:10:43.548Z,17.30
2022-11-20T16:13:32.301Z,17.30
2022-11-20T16:16:03.096Z,17.30
2022-11-20T16:18:30.867Z,17.30
2022-11-20T16:20:59.054Z,17.30
2022-11-20T16:23:28.188Z,17.30
2022-11-20T16:25:56.205Z,17.30
2022-11-20T16:28:23.955Z,17.30
2022-11-20T16:30:51.756Z,17.40
2022-11-20T16:33:19.654Z,17.30
2022-11-20T16:35:47.480Z,17.30
2022-11-20T16:38:15.231Z,17.30
2022-11-20T16:40:44.362Z,17.30
2022-11-20T16:43:14.813Z,17.30
2022-11-20T16:45:44.026Z,17.30
2022-11-20T16:48:14.714Z,17.30
2022-11-20T16:50:48.868Z,17.30
2022-11-20T16:53:17.036Z,17.30
2022-11-20T16:55:46.445Z,17.30
2022-11-20T16:58:14.807Z,17.30
2022-11-20T17:00:48.299Z,17.30
2022-11-20T17:03:19.441Z,17.30
2022-11-20T17:05:47.298Z,17.30
2022-11-20T17:08:15.024Z,17.30
2022-11-20T17:10:42.816Z,17.30
2022-11-20T17:13:11.916Z,17.30
2022-11-20T17:15:39.693Z,17.30
2022-11-20T17:18:07.454Z,17.30
2022-11-20T17:20:35.272Z,17.30
2022-11-20T17:23:03.066Z,17.30
2022-11-20T17:25:34.114Z,17.30
2022-11-20T17:28:01.891Z,17.30
2022-11-20T17:30:31.539Z,17.30
2022-11-20T17:32:59.333Z,17.30
2022-11-20T17:35:27.115Z,17.30
2022-11-20T17:37:54.864Z,17.30
2022-11-20T17:40:27.093Z,17.30
2022-11-20T17:42:55.720Z,17.30
2022-11-20T17:45:23.538Z,17.30
2022-11-20T17:47:52.625Z,17.30
2022-11-20T17:50:20.735Z,17.30
2022-11-20T17:52:48.549Z,17.30
2022-11-20T17:55:16.547Z,17.30
2022-11-20T17:57:57.051Z,17.30
2022-11-20T18:00:25.135Z,17.30
2022-11-20T18:02:54.287Z,17.30
2022-11-20T18:05:22.218Z,17.30
2022-11-20T18:07:54.512Z,17.30
2022-11-20T18:10:22.401Z,17.30
2022-11-20T18:12:50.301Z,17.30
2022-11-20T18:15:18.154Z,17.30
2022-11-20T18:17:45.925Z,17.30
2022-11-20T18:20:29.457Z,17.30
2022-11-20T18:22:58.357Z,17.30
2022-11-20T18:25:26.210Z,17.30
2022-11-20T18:27:54.003Z,17.30
2022-11-20T18:30:21.962Z,17.30
2022-11-20T18:32:49.996Z,17.20
2022-11-20T18:35:19.168Z,17.20
2022-11-20T18:37:46.964Z,17.20
2022-11-20T18:40:15.037Z,17.20
2022-11-20T18:43:00.297Z,17.20
2022-11-20T18:45:28.968Z,17.20
2022-11-20T18:47:56.737Z,17.20
2022-11-20T18:50:25.831Z,17.20
2022-11-20T18:52:53.677Z,17.20
2022-11-20T18:55:24.248Z,17.20
2022-11-20T18:57:52.553Z,17.20
2022-11-20T19:00:20.776Z,17.20
2022-11-20T19:02:48.582Z,17.20
2022-11-20T19:05:16.435Z,17.20
2022-11-20T19:07:45.555Z,17.20
2022-11-20T19:10:13.370Z,17.20
2022-11-20T19:12:41.157Z,17.20
2022-11-20T19:15:09.335Z,17.30
2022-11-20T19:17:37.619Z,17.30
2022-11-20T19:20:06.034Z,17.30
2022-11-20T19:22:33.842Z,17.20
2022-11-20T19:25:02.938Z,17.20
2022-11-20T19:27:30.813Z,17.20
2022-11-20T19:30:02.890Z,17.20
2022-11-20T19:32:30.870Z,17.20
2022-11-20T19:34:58.630Z,17.20
2022-11-20T19:37:26.413Z,17.20
2022-11-20T19:39:56.541Z,17.20
2022-11-20T19:42:25.665Z,17.20
2022-11-20T19:44:53.783Z,17.20
2022-11-20T19:47:22.855Z,17.20
2022-11-20T19:49:50.834Z,17.20
2022-11-20T19:52:18.603Z,17.10
2022-11-20T19:54:46.333Z,17.10
2022-11-20T19:57:14.095Z,17.10
2022-11-20T19:59:43.259Z,17.10
2022-11-20T20:02:12.762Z,17.10
2022-11-20T20:04:40.599Z,17.10
2022-11-20T20:07:08.437Z,17.10
2022-11-20T20:09:36.429Z,17.10
2022-11-20T20:12:04.381Z,17.10
2022-11-20T20:14:32.496Z,17.10
2022-11-20T20:17:01.669Z,17.10
2022-11-20T20:19:29.491Z,17.10
2022-11-20T20:21:57.261Z,17.10
2022-11-20T20:24:25.014Z,17.10
2022-11-20T20:26:57.844Z,17.00
2022-11-20T20:29:26.343Z,17.10
2022-11-20T20:31:54.329Z,17.10
2022-11-20T20:34:23.838Z,17.10
2022-11-20T20:36:51.605Z,17.10
2022-11-20T20:39:19.673Z,17.10
2022-11-20T20:41:47.479Z,17.10
2022-11-20T20:44:32.859Z,17.10
2022-11-20T20:47:00.608Z,17.10
2022-11-20T20:49:29.799Z,17.10
2022-11-20T20:51:57.589Z,17.10
2022-11-20T20:54:25.392Z,17.10
2022-11-20T20:56:53.167Z,17.10
2022-11-20T20:59:21.498Z,17.10
2022-11-20T21:01:49.614Z,17.10
2022-11-20T21:04:17.393Z,17.10
2022-11-20T21:06:46.469Z,17.20
2022-11-20T21:09:14.262Z,17.20
2022-11-20T21:11:42.049Z,17.20
2022-11-20T21:14:09.802Z,17.10
2022-11-20T21:16:43.667Z,17.10
2022-11-20T21:19:11.887Z,17.10
2022-11-20T21:21:57.379Z,17.10
2022-11-20T21:24:27.017Z,17.10
2022-11-20T21:26:55.200Z,17.10
2022-11-20T21:29:24.939Z,17.10
2022-11-20T21:31:53.965Z,17.10
2022-11-20T21:34:23.147Z,17.10
2022-11-20T21:36:51.363Z,17.10
2022-11-20T21:39:20.359Z,17.10
2022-11-20T21:41:49.485Z,17.10
2022-11-20T21:44:41.507Z,17.10
2022-11-20T21:47:05.130Z,17.10
2022-11-20T21:49:32.937Z,17.10
2022-11-20T21:52:00.723Z,17.00
2022-11-20T21:54:28.664Z,17.00
2022-11-20T21:56:57.777Z,17.00
2022-11-20T21:59:25.649Z,17.10
2022-11-20T22:01:53.493Z,17.00
2022-11-20T22:04:22.799Z,17.00
2022-11-20T22:06:50.927Z,17.00
2022-11-20T22:09:18.712Z,17.10
2022-11-20T22:11:46.498Z,17.00
2022-11-20T22:14:20.440Z,17.00
2022-11-20T22:16:49.114Z,17.10
2022-11-20T22:19:18.893Z,17.00
2022-11-20T22:21:46.949Z,17.00
2022-11-20T22:24:16.958Z,17.00
2022-11-20T22:26:45.257Z,17.00
2022-11-20T22:29:16.177Z,17.00
2022-11-20T22:31:44.286Z,17.00
2022-11-20T22:34:13.251Z,17.00
2022-11-20T22:36:41.881Z,17.00
2022-11-20T22:39:10.339Z,17.00
2022-11-20T22:41:38.185Z,17.00
2022-11-20T22:44:08.221Z,17.00
2022-11-20T22:46:38.661Z,17.00
2022-11-20T22:49:09.302Z,17.00
2022-11-20T22:51:39.626Z,17.00
2022-11-20T22:54:09.299Z,17.00
2022-11-20T22:56:37.050Z,17.00
2022-11-20T22:59:05.282Z,17.00
2022-11-20T23:01:34.675Z,17.00
2022-11-20T23:04:05.613Z,17.00
2022-11-20T23:06:34.945Z,17.00
2022-11-20T23:09:02.896Z,17.00
2022-11-20T23:11:32.215Z,16.90
2022-11-20T23:14:01.486Z,17.00
2022-11-20T23:16:30.605Z,17.00
2022-11-20T23:19:00.240Z,17.00
2022-11-20T23:21:29.717Z,17.00
2022-11-20T23:23:58.910Z,17.00
2022-11-20T23:26:29.173Z,17.00
2022-11-20T23:28:59.781Z,17.00
2022-11-20T23:31:29.716Z,17.00
2022-11-20T23:33:57.568Z,17.00
2022-11-20T23:36:25.378Z,17.00
2022-11-20T23:38:54.483Z,17.00
2022-11-20T23:41:22.289Z,17.00
2022-11-20T23:43:50.126Z,17.00
2022-11-20T23:46:17.907Z,16.90
2022-11-20T23:48:46.232Z,17.00
2022-11-20T23:51:14.988Z,17.00
2022-11-20T23:53:43.130Z,17.00
2022-11-20T23:56:14.226Z,17.00
2022-11-20T23:58:42.356Z,17.00
